createdAt,value
2019-06-01T00:01:09.574Z,73.10
2019-06-01T00:03:42.207Z,73.00
2019-06-01T00:06:14.189Z,72.90
2019-06-01T00:08:47.120Z,72.90
2019-06-01T00:11:19.324Z,73.00
2019-06-01T00:13:51.026Z,73.00
2019-06-01T00:16:23.013Z,72.80
2019-06-01T00:18:54.531Z,72.80
2019-06-01T00:21:26.175Z,72.80
2019-06-01T00:23:57.755Z,72.80
2019-06-01T00:26:29.183Z,72.70
2019-06-01T00:29:00.897Z,72.70
2019-06-01T00:31:32.606Z,72.70
2019-06-01T00:34:04.489Z,72.80
2019-06-01T00:36:36.100Z,72.70
2019-06-01T00:39:08.953Z,72.70
2019-06-01T00:41:41.802Z,72.80
2019-06-01T00:44:13.730Z,72.60
2019-06-01T00:46:46.576Z,72.60
2019-06-01T00:49:18.546Z,72.70
2019-06-01T00:51:52.051Z,72.50
2019-06-01T00:54:23.514Z,72.20
2019-06-01T00:56:55.042Z,72.10
2019-06-01T00:59:29.061Z,72.10
2019-06-01T01:02:00.619Z,72.10
2019-06-01T01:04:32.081Z,72.00
2019-06-01T01:07:03.970Z,71.90
2019-06-01T01:09:35.567Z,71.70
2019-06-01T01:12:07.178Z,71.60
2019-06-01T01:14:38.944Z,71.20
2019-06-01T01:17:10.437Z,71.30
2019-06-01T01:19:41.914Z,71.30
2019-06-01T01:22:13.592Z,72.10
2019-06-01T01:24:46.283Z,71.00
2019-06-01T01:27:18.006Z,71.00
2019-06-01T01:29:50.724Z,70.90
2019-06-01T01:32:22.762Z,71.00
2019-06-01T01:34:54.157Z,70.80
2019-06-01T01:37:25.978Z,70.90
2019-06-01T01:39:58.551Z,71.00
2019-06-01T01:42:30.500Z,71.00
2019-06-01T01:45:02.114Z,71.10
2019-06-01T01:47:33.955Z,71.20
2019-06-01T01:50:05.629Z,71.20
2019-06-01T01:52:37.602Z,71.10
2019-06-01T01:55:09.342Z,71.00
2019-06-01T01:57:41.157Z,71.20
2019-06-01T02:00:13.715Z,70.70
2019-06-01T02:02:45.740Z,70.60
2019-06-01T02:05:17.425Z,70.50
2019-06-01T02:07:49.071Z,70.20
2019-06-01T02:10:20.923Z,70.10
2019-06-01T02:12:53.376Z,70.20
2019-06-01T02:15:25.375Z,70.20
2019-06-01T02:17:58.105Z,70.10
2019-06-01T02:20:29.919Z,70.20
2019-06-01T02:23:03.047Z,70.00
2019-06-01T02:25:35.021Z,69.50
2019-06-01T02:28:06.398Z,69.60
2019-06-01T02:30:37.867Z,69.60
2019-06-01T02:33:09.610Z,69.80
2019-06-01T02:35:41.362Z,69.70
2019-06-01T02:38:13.003Z,69.70
2019-06-01T02:40:44.886Z,69.60
2019-06-01T02:43:16.534Z,69.70
2019-06-01T02:45:48.042Z,69.70
2019-06-01T02:48:19.887Z,69.40
2019-06-01T02:50:51.422Z,69.40
2019-06-01T02:53:23.427Z,69.50
2019-06-01T02:55:55.796Z,69.70
2019-06-01T02:58:27.742Z,69.50
2019-06-01T03:01:02.934Z,69.50
2019-06-01T03:03:34.828Z,69.40
2019-06-01T03:06:07.586Z,69.40
2019-06-01T03:08:39.423Z,69.30
2019-06-01T03:11:10.998Z,69.30
2019-06-01T03:13:42.680Z,69.20
2019-06-01T03:16:14.741Z,69.10
2019-06-01T03:18:46.511Z,69.00
2019-06-01T03:21:19.186Z,69.00
2019-06-01T03:23:51.117Z,68.90
2019-06-01T03:26:22.863Z,68.90
2019-06-01T03:28:54.143Z,68.70
2019-06-01T03:31:25.718Z,68.60
2019-06-01T03:33:57.167Z,68.70
2019-06-01T03:36:28.965Z,68.60
2019-06-01T03:39:02.019Z,68.50
2019-06-01T03:41:34.205Z,68.10
2019-06-01T03:44:06.539Z,68.10
2019-06-01T03:46:38.274Z,67.90
2019-06-01T03:49:10.309Z,67.80
2019-06-01T03:51:41.935Z,67.30
2019-06-01T03:54:13.336Z,67.40
2019-06-01T03:56:45.104Z,67.40
2019-06-01T03:59:17.005Z,67.30
2019-06-01T04:01:51.241Z,67.10
2019-06-01T04:04:23.077Z,66.90
2019-06-01T04:06:54.980Z,66.60
2019-06-01T04:09:26.669Z,66.30
2019-06-01T04:11:58.476Z,66.00
2019-06-01T04:14:30.329Z,65.90
2019-06-01T04:17:02.255Z,65.80
2019-06-01T04:19:33.879Z,65.30
2019-06-01T04:22:05.983Z,65.50
2019-06-01T04:24:37.531Z,65.00
2019-06-01T04:27:10.121Z,64.50
2019-06-01T04:29:41.987Z,64.20
2019-06-01T04:32:13.933Z,64.40
2019-06-01T04:34:45.581Z,63.70
2019-06-01T04:37:17.320Z,63.60
2019-06-01T04:39:48.882Z,64.30
2019-06-01T04:42:20.454Z,63.60
2019-06-01T04:44:51.879Z,63.60
2019-06-01T04:47:23.301Z,63.90
2019-06-01T04:49:55.002Z,63.80
2019-06-01T04:52:27.039Z,64.00
2019-06-01T04:54:58.579Z,63.80
2019-06-01T04:57:30.421Z,63.70
2019-06-01T05:00:02.120Z,63.40
2019-06-01T05:02:34.849Z,63.20
2019-06-01T05:05:07.564Z,63.00
2019-06-01T05:07:39.313Z,62.90
2019-06-01T05:10:11.576Z,61.90
2019-06-01T05:12:43.387Z,62.30
2019-06-01T05:15:16.076Z,62.60
2019-06-01T05:17:47.950Z,62.40
2019-06-01T05:20:19.544Z,62.40
2019-06-01T05:22:50.951Z,62.40
2019-06-01T05:25:22.721Z,63.00
2019-06-01T05:27:54.498Z,62.10
2019-06-01T05:30:50.006Z,62.00
2019-06-01T05:33:36.558Z,62.00
2019-06-01T05:35:54.689Z,61.40
2019-06-01T05:38:26.450Z,61.90
2019-06-01T05:40:57.909Z,61.80
2019-06-01T05:43:29.479Z,61.80
2019-06-01T05:46:01.198Z,61.70
2019-06-01T05:48:32.681Z,61.80
2019-06-01T05:51:04.377Z,61.80
2019-06-01T05:53:36.247Z,62.00
2019-06-01T05:56:08.066Z,61.70
2019-06-01T05:58:39.699Z,61.60
2019-06-01T06:01:12.368Z,61.60
2019-06-01T06:03:44.121Z,61.40
2019-06-01T06:06:16.144Z,61.00
2019-06-01T06:08:47.631Z,61.40
2019-06-01T06:11:19.493Z,62.20
2019-06-01T06:13:51.115Z,61.90
2019-06-01T06:16:22.726Z,61.60
2019-06-01T06:18:54.496Z,61.90
2019-06-01T06:21:26.303Z,61.70
2019-06-01T06:23:58.047Z,61.70
2019-06-01T06:26:29.810Z,61.90
2019-06-01T06:29:01.470Z,61.50
2019-06-01T06:31:33.076Z,61.10
2019-06-01T06:34:04.648Z,59.90
2019-06-01T06:36:36.266Z,58.80
2019-06-01T06:39:09.145Z,59.10
2019-06-01T06:41:40.817Z,59.90
2019-06-01T06:44:12.454Z,59.70
2019-06-01T06:46:44.487Z,59.90
2019-06-01T06:49:16.980Z,60.30
2019-06-01T06:51:48.909Z,59.80
2019-06-01T06:54:21.763Z,60.10
2019-06-01T06:56:53.650Z,59.60
2019-06-01T06:59:25.025Z,59.50
2019-06-01T07:01:56.695Z,59.50
2019-06-01T07:04:30.943Z,59.50
2019-06-01T07:07:02.542Z,60.00
2019-06-01T07:09:34.344Z,59.60
2019-06-01T07:12:06.198Z,59.60
2019-06-01T07:14:37.654Z,59.00
2019-06-01T07:17:09.290Z,58.80
2019-06-01T07:19:41.222Z,58.90
2019-06-01T07:22:12.660Z,58.90
2019-06-01T07:24:44.122Z,59.00
2019-06-01T07:27:15.676Z,58.40
2019-06-01T07:29:47.329Z,58.20
2019-06-01T07:32:20.091Z,58.10
2019-06-01T07:34:52.193Z,58.30
2019-06-01T07:37:27.178Z,58.30
2019-06-01T07:39:59.191Z,58.00
2019-06-01T07:42:30.582Z,58.40
2019-06-01T07:45:01.937Z,58.60
2019-06-01T07:47:34.282Z,57.20
2019-06-01T07:50:06.914Z,58.00
2019-06-01T07:52:38.887Z,58.00
2019-06-01T07:55:10.445Z,56.10
2019-06-01T07:57:43.631Z,57.50
2019-06-01T08:00:14.946Z,57.50
2019-06-01T08:02:46.742Z,57.40
2019-06-01T08:05:18.719Z,56.90
2019-06-01T08:07:50.225Z,57.60
2019-06-01T08:10:23.084Z,57.50
2019-06-01T08:12:54.794Z,57.80
2019-06-01T08:15:27.988Z,56.50
2019-06-01T08:17:59.856Z,56.70
2019-06-01T08:20:32.262Z,58.00
2019-06-01T08:23:04.014Z,57.90
2019-06-01T08:25:36.262Z,56.60
2019-06-01T08:28:08.130Z,57.00
2019-06-01T08:30:39.590Z,56.10
2019-06-01T08:33:11.374Z,58.00
2019-06-01T08:35:42.906Z,57.70
2019-06-01T08:38:14.568Z,57.30
2019-06-01T08:40:46.152Z,57.20
2019-06-01T08:43:17.774Z,58.20
2019-06-01T08:45:49.701Z,57.90
2019-06-01T08:48:21.513Z,57.60
2019-06-01T08:50:52.878Z,57.60
2019-06-01T08:53:24.421Z,57.20
2019-06-01T08:55:55.842Z,57.30
2019-06-01T08:58:28.142Z,57.40
2019-06-01T09:01:00.414Z,57.60
2019-06-01T09:03:32.035Z,57.70
2019-06-01T09:06:03.822Z,57.90
2019-06-01T09:08:35.635Z,58.20
2019-06-01T09:11:10.727Z,58.50
2019-06-01T09:13:42.003Z,58.80
2019-06-01T09:16:13.854Z,58.90
2019-06-01T09:18:45.385Z,58.50
2019-06-01T09:21:17.191Z,59.30
2019-06-01T09:23:48.621Z,59.40
2019-06-01T09:26:20.469Z,59.60
2019-06-01T09:28:51.918Z,59.60
2019-06-01T09:31:23.388Z,59.80
2019-06-01T09:33:55.284Z,59.90
2019-06-01T09:36:28.242Z,60.00
2019-06-01T09:39:00.155Z,60.00
2019-06-01T09:41:32.603Z,60.20
2019-06-01T09:44:04.492Z,60.40
2019-06-01T09:46:37.290Z,60.50
2019-06-01T09:49:09.277Z,60.60
2019-06-01T09:51:40.737Z,60.60
2019-06-01T09:54:12.723Z,60.70
2019-06-01T09:56:44.237Z,60.70
2019-06-01T09:59:15.978Z,60.70
2019-06-01T10:01:47.834Z,60.90
2019-06-01T10:04:19.467Z,61.00
2019-06-01T10:06:51.335Z,60.90
2019-06-01T10:09:23.646Z,61.10
2019-06-01T10:11:55.578Z,61.00
2019-06-01T10:14:27.223Z,61.20
2019-06-01T10:16:58.813Z,61.20
2019-06-01T10:19:30.679Z,61.30
2019-06-01T10:22:02.648Z,61.40
2019-06-01T10:24:35.111Z,61.40
2019-06-01T10:27:07.101Z,61.40
2019-06-01T10:29:39.932Z,61.50
2019-06-01T10:32:12.251Z,61.60
2019-06-01T10:34:43.692Z,61.70
2019-06-01T10:37:15.558Z,61.80
2019-06-01T10:39:47.282Z,62.10
2019-06-01T10:42:19.257Z,62.00
2019-06-01T10:44:50.906Z,62.30
2019-06-01T10:47:22.722Z,62.30
2019-06-01T10:49:54.238Z,62.40
2019-06-01T10:52:25.888Z,62.60
2019-06-01T10:54:57.777Z,62.60
2019-06-01T10:57:29.619Z,62.80
2019-06-01T11:00:01.382Z,62.80
2019-06-01T11:02:34.657Z,62.80
2019-06-01T11:05:07.112Z,62.90
2019-06-01T11:07:39.042Z,63.00
2019-06-01T11:10:12.803Z,63.10
2019-06-01T11:12:44.523Z,62.80
2019-06-01T11:15:16.314Z,62.90
2019-06-01T11:17:48.115Z,63.00
2019-06-01T11:20:20.202Z,63.00
2019-06-01T11:22:52.034Z,63.00
2019-06-01T11:25:23.726Z,63.00
2019-06-01T11:27:55.279Z,62.90
2019-06-01T11:30:50.968Z,62.90
2019-06-01T11:33:22.634Z,62.90
2019-06-01T11:35:54.290Z,62.90
2019-06-01T11:38:26.267Z,62.90
2019-06-01T11:40:57.849Z,62.80
2019-06-01T11:43:29.867Z,62.70
2019-06-01T11:46:01.659Z,62.70
2019-06-01T11:48:35.001Z,62.70
2019-06-01T11:51:06.321Z,62.60
2019-06-01T11:53:39.785Z,62.60
2019-06-01T11:56:11.354Z,62.50
2019-06-01T11:58:43.490Z,62.50
2019-06-01T12:01:15.270Z,62.40
2019-06-01T12:03:47.295Z,62.40
2019-06-01T12:06:18.940Z,62.30
2019-06-01T12:08:50.668Z,62.40
2019-06-01T12:11:22.665Z,62.20
2019-06-01T12:13:54.645Z,62.10
2019-06-01T12:16:26.333Z,62.00
2019-06-01T12:18:58.262Z,62.00
2019-06-01T12:21:31.517Z,61.90
2019-06-01T12:24:03.565Z,61.90
2019-06-01T12:26:35.298Z,61.80
2019-06-01T12:29:07.382Z,61.90
2019-06-01T12:31:39.630Z,61.90
2019-06-01T12:34:11.565Z,61.80
2019-06-01T12:36:44.523Z,61.70
2019-06-01T12:39:16.360Z,61.80
2019-06-01T12:41:48.087Z,61.80
2019-06-01T12:44:23.226Z,61.90
2019-06-01T12:46:54.981Z,61.90
2019-06-01T12:49:26.842Z,61.90
2019-06-01T12:51:58.363Z,61.90
2019-06-01T12:54:29.885Z,61.90
2019-06-01T12:57:01.551Z,61.90
2019-06-01T12:59:33.408Z,62.00
2019-06-01T13:02:05.549Z,62.10
2019-06-01T13:04:37.396Z,62.00
2019-06-01T13:07:09.357Z,62.10
2019-06-01T13:09:41.949Z,62.20
2019-06-01T13:12:14.931Z,62.20
2019-06-01T13:14:47.232Z,62.40
2019-06-01T13:17:19.181Z,62.50
2019-06-01T13:19:51.570Z,62.50
2019-06-01T13:22:23.630Z,62.60
2019-06-01T13:24:55.370Z,62.60
2019-06-01T13:27:27.217Z,62.60
2019-06-01T13:29:58.821Z,62.70
2019-06-01T13:32:30.695Z,62.80
2019-06-01T13:35:02.318Z,62.80
2019-06-01T13:37:34.289Z,62.80
2019-06-01T13:40:06.954Z,63.00
2019-06-01T13:42:38.709Z,63.10
2019-06-01T13:45:10.383Z,63.10
2019-06-01T13:47:43.409Z,63.20
2019-06-01T13:50:15.162Z,63.40
2019-06-01T13:52:48.004Z,63.40
2019-06-01T13:55:19.728Z,63.50
2019-06-01T13:57:52.437Z,63.80
2019-06-01T14:00:30.268Z,63.90
2019-06-01T14:02:57.707Z,63.90
2019-06-01T14:05:29.591Z,64.00
2019-06-01T14:08:01.488Z,64.10
2019-06-01T14:10:33.221Z,64.10
2019-06-01T14:13:05.614Z,64.20
2019-06-01T14:15:37.238Z,64.30
2019-06-01T14:18:08.859Z,64.40
2019-06-01T14:20:40.935Z,64.40
2019-06-01T14:23:12.541Z,64.50
2019-06-01T14:25:44.274Z,64.50
2019-06-01T14:28:15.990Z,64.50
2019-06-01T14:30:48.475Z,64.60
2019-06-01T14:33:20.214Z,64.60
2019-06-01T14:35:52.769Z,64.60
2019-06-01T14:38:24.857Z,64.70
2019-06-01T14:40:57.397Z,64.60
2019-06-01T14:43:29.587Z,64.70
2019-06-01T14:46:01.256Z,64.70
2019-06-01T14:48:33.320Z,64.70
2019-06-01T14:51:05.182Z,64.80
2019-06-01T14:53:36.990Z,64.70
2019-06-01T14:56:08.736Z,64.70
2019-06-01T14:58:40.754Z,64.80
2019-06-01T15:01:12.541Z,64.80
2019-06-01T15:03:48.136Z,64.80
2019-06-01T15:06:20.859Z,64.80
2019-06-01T15:09:10.915Z,64.90
2019-06-01T15:11:25.450Z,65.00
2019-06-01T15:13:58.520Z,65.10
2019-06-01T15:16:30.186Z,65.20
2019-06-01T15:19:02.199Z,67.00
2019-06-01T15:21:34.033Z,68.40
2019-06-01T15:24:06.110Z,69.20
2019-06-01T15:26:37.845Z,69.40
2019-06-01T15:29:09.711Z,70.10
2019-06-01T15:31:41.567Z,70.60
2019-06-01T15:34:13.366Z,71.20
2019-06-01T15:36:45.109Z,71.00
2019-06-01T15:39:24.697Z,71.70
2019-06-01T15:41:51.238Z,72.20
2019-06-01T15:44:23.086Z,73.30
2019-06-01T15:46:55.745Z,72.40
2019-06-01T15:49:30.951Z,74.00
2019-06-01T15:52:02.732Z,73.70
2019-06-01T15:54:34.506Z,73.40
2019-06-01T15:57:06.052Z,74.60
2019-06-01T15:59:37.725Z,74.40
2019-06-01T16:02:09.556Z,74.50
2019-06-01T16:04:41.200Z,73.80
2019-06-01T16:07:12.991Z,75.30
2019-06-01T16:09:44.774Z,75.40
2019-06-01T16:12:16.834Z,75.50
2019-06-01T16:14:50.494Z,75.00
2019-06-01T16:17:22.307Z,73.60
2019-06-01T16:19:54.145Z,73.20
2019-06-01T16:22:26.263Z,72.70
2019-06-01T16:24:58.131Z,72.20
2019-06-01T16:27:29.973Z,72.50
2019-06-01T16:30:03.755Z,72.30
2019-06-01T16:32:38.454Z,73.30
2019-06-01T16:35:08.223Z,72.80
2019-06-01T16:37:40.173Z,72.60
2019-06-01T16:40:11.831Z,73.00
2019-06-01T16:42:43.885Z,72.10
2019-06-01T16:45:15.526Z,71.90
2019-06-01T16:47:47.703Z,72.10
2019-06-01T16:50:19.263Z,72.10
2019-06-01T16:52:50.838Z,71.80
2019-06-01T16:55:22.713Z,73.70
2019-06-01T16:57:54.571Z,73.30
2019-06-01T17:00:26.352Z,72.20
2019-06-01T17:02:58.453Z,72.40
2019-06-01T17:05:30.279Z,72.10
2019-06-01T17:08:02.815Z,73.40
2019-06-01T17:10:34.799Z,72.90
2019-06-01T17:13:08.348Z,73.90
2019-06-01T17:15:39.761Z,73.20
2019-06-01T17:18:11.276Z,75.30
2019-06-01T17:20:50.612Z,73.40
2019-06-01T17:23:27.776Z,73.50
2019-06-01T17:25:55.618Z,72.80
2019-06-01T17:28:27.292Z,73.60
2019-06-01T17:31:00.066Z,72.60
2019-06-01T17:33:31.857Z,72.70
2019-06-01T17:36:04.679Z,72.60
2019-06-01T17:38:36.457Z,72.40
2019-06-01T17:41:08.497Z,71.50
2019-06-01T17:43:40.100Z,71.80
2019-06-01T17:46:12.039Z,71.90
2019-06-01T17:48:43.713Z,72.00
2019-06-01T17:51:15.605Z,72.00
2019-06-01T17:53:47.145Z,72.00
2019-06-01T17:56:19.137Z,71.70
2019-06-01T17:58:50.754Z,71.90
2019-06-01T18:01:22.925Z,72.00
2019-06-01T18:03:54.669Z,71.90
2019-06-01T18:06:26.732Z,72.60
2019-06-01T18:08:58.499Z,72.30
2019-06-01T18:11:30.561Z,72.50
2019-06-01T18:14:02.419Z,72.40
2019-06-01T18:16:34.667Z,72.10
2019-06-01T18:19:06.471Z,72.20
2019-06-01T18:21:38.365Z,72.50
2019-06-01T18:24:10.951Z,72.50
2019-06-01T18:26:43.070Z,72.30
2019-06-01T18:29:14.943Z,73.10
2019-06-01T18:31:46.847Z,72.90
2019-06-01T18:34:18.592Z,72.60
2019-06-01T18:36:50.119Z,72.40
2019-06-01T18:39:22.198Z,72.40
2019-06-01T18:41:53.734Z,72.80
2019-06-01T18:44:25.447Z,72.70
2019-06-01T18:46:57.275Z,72.80
2019-06-01T18:49:28.910Z,72.40
2019-06-01T18:52:00.390Z,72.30
2019-06-01T18:54:32.175Z,72.30
2019-06-01T18:57:12.269Z,73.00
2019-06-01T18:59:36.846Z,72.50
2019-06-01T19:02:08.499Z,72.80
2019-06-01T19:04:40.019Z,72.60
2019-06-01T19:07:11.784Z,73.60
2019-06-01T19:09:43.529Z,73.00
2019-06-01T19:12:15.570Z,73.10
2019-06-01T19:14:47.194Z,72.90
2019-06-01T19:17:21.381Z,73.40
2019-06-01T19:19:53.067Z,74.10
2019-06-01T19:22:24.946Z,73.90
2019-06-01T19:24:56.598Z,73.30
2019-06-01T19:27:28.208Z,73.60
2019-06-01T19:29:59.929Z,74.30
2019-06-01T19:32:31.693Z,75.60
2019-06-01T19:35:03.724Z,75.70
2019-06-01T19:37:38.235Z,74.10
2019-06-01T19:40:09.544Z,74.10
2019-06-01T19:42:41.045Z,75.20
2019-06-01T19:45:24.189Z,74.90
2019-06-01T19:47:45.915Z,74.40
2019-06-01T19:50:18.452Z,74.50
2019-06-01T19:52:50.441Z,75.60
2019-06-01T19:55:22.300Z,75.60
2019-06-01T19:57:54.058Z,74.80
2019-06-01T20:00:25.947Z,75.20
2019-06-01T20:02:57.606Z,74.70
2019-06-01T20:05:29.235Z,74.40
2019-06-01T20:08:01.200Z,74.30
2019-06-01T20:10:32.767Z,74.20
2019-06-01T20:13:04.856Z,74.30
2019-06-01T20:15:36.190Z,74.30
2019-06-01T20:18:08.358Z,75.40
2019-06-01T20:20:40.020Z,75.50
2019-06-01T20:23:13.047Z,75.30
2019-06-01T20:25:44.813Z,75.10
2019-06-01T20:28:17.498Z,74.80
2019-06-01T20:30:49.417Z,74.90
2019-06-01T20:33:22.596Z,74.80
2019-06-01T20:35:54.399Z,74.60
2019-06-01T20:38:26.329Z,74.60
2019-06-01T20:40:57.974Z,74.40
2019-06-01T20:43:29.589Z,74.30
2019-06-01T20:46:01.461Z,74.20
2019-06-01T20:48:33.287Z,74.10
2019-06-01T20:51:05.267Z,74.80
2019-06-01T20:53:37.008Z,73.90
2019-06-01T20:56:08.766Z,73.80
2019-06-01T20:58:40.455Z,73.70
2019-06-01T21:01:12.017Z,73.70
2019-06-01T21:03:43.634Z,73.60
2019-06-01T21:06:15.842Z,73.50
2019-06-01T21:08:47.578Z,73.50
2019-06-01T21:11:20.056Z,73.60
2019-06-01T21:13:51.638Z,73.50
2019-06-01T21:16:24.757Z,73.50
2019-06-01T21:18:56.643Z,73.60
2019-06-01T21:21:28.557Z,72.80
2019-06-01T21:24:00.288Z,73.60
2019-06-01T21:26:32.685Z,73.60
2019-06-01T21:29:04.427Z,73.60
2019-06-01T21:31:36.092Z,73.70
2019-06-01T21:34:07.839Z,73.70
2019-06-01T21:36:41.641Z,74.60
2019-06-01T21:39:12.730Z,74.80
2019-06-01T21:41:44.568Z,75.20
2019-06-01T21:44:17.335Z,74.40
2019-06-01T21:46:49.145Z,74.10
2019-06-01T21:49:22.144Z,75.60
2019-06-01T21:51:53.797Z,75.30
2019-06-01T21:54:26.341Z,75.60
2019-06-01T21:56:58.302Z,75.30
2019-06-01T21:59:30.114Z,75.80
2019-06-01T22:02:01.832Z,77.10
2019-06-01T22:04:33.611Z,75.90
2019-06-01T22:07:05.360Z,76.00
2019-06-01T22:09:37.251Z,76.20
2019-06-01T22:12:08.917Z,76.10
2019-06-01T22:14:40.767Z,76.00
2019-06-01T22:17:12.523Z,77.60
2019-06-01T22:19:46.579Z,78.10
2019-06-01T22:22:19.519Z,77.50
2019-06-01T22:24:51.788Z,77.30
2019-06-01T22:27:24.229Z,77.60
2019-06-01T22:29:56.229Z,77.30
2019-06-01T22:32:30.080Z,76.40
2019-06-01T22:35:01.250Z,76.50
2019-06-01T22:37:32.977Z,76.40
2019-06-01T22:40:04.713Z,76.50
2019-06-01T22:42:36.569Z,76.40
2019-06-01T22:45:08.637Z,76.40
2019-06-01T22:47:40.511Z,76.20
2019-06-01T22:50:11.982Z,76.10
2019-06-01T22:52:43.838Z,76.10
2019-06-01T22:55:15.511Z,76.00
2019-06-01T22:57:47.326Z,76.00
2019-06-01T23:00:19.195Z,76.10
2019-06-01T23:02:50.884Z,75.90
2019-06-01T23:05:23.029Z,75.80
2019-06-01T23:07:54.964Z,76.50
2019-06-01T23:10:31.443Z,75.90
2019-06-01T23:12:59.881Z,75.70
2019-06-01T23:15:31.947Z,75.80
2019-06-01T23:18:04.090Z,76.00
2019-06-01T23:20:36.058Z,76.00
2019-06-01T23:23:08.129Z,76.10
2019-06-01T23:25:39.886Z,76.00
2019-06-01T23:28:11.742Z,76.00
2019-06-01T23:30:52.250Z,75.90
2019-06-01T23:33:24.745Z,76.00
2019-06-01T23:35:56.273Z,76.00
2019-06-01T23:38:28.673Z,76.20
2019-06-01T23:41:00.490Z,76.00
2019-06-01T23:43:32.987Z,75.40
2019-06-01T23:46:04.876Z,76.00
2019-06-01T23:48:36.612Z,75.70
2019-06-01T23:51:08.350Z,75.70
2019-06-01T23:53:40.102Z,75.60
2019-06-01T23:56:11.967Z,75.40
2019-06-01T23:58:43.557Z,75.20
